Aeroporto :
LOGIN :

Iscrizione | Disclaimer

   EN    FR    IT 

 










Sommario :    VFR   VFR Marginale   IFR   IFR Intensivo   IFR Molto Intensivo
Visibilità : 
Base nubi : 
>= 8 km
>= 3000ft
5 / 8 km
1000 / 3000 ft
1500m / 5 km
500 / 1000 ft
800 / 1500m
200 / 500 ft
< 800m
< 200 ft
Simboli :   Temporali  Nebbia  Neve Forte  Precipitazioni Forti  Vento > 20 kt
SIGMETs :   Varie  Temporali  Ghiacco  Turbolenza  Onda orograficha  Ceneri Vulcaniche






- Altitudine del aeroporto : 184 ft
- Codice IATA : BRU


EBBR - Bruxelles

ULTIMO METAR :
  • 200520Z 21011KT 9999 BKN016 BKN044 08/05 Q1016 NOSIG

METARs OBSOLETI :
  • 200450Z 21011KT 9999 FEW015 SCT017 BKN022 08/05 Q1016 NOSIG
  • 200420Z 21012KT 9999 BKN016 08/06 Q1016 NOSIG
  • 200350Z 20008KT 9999 SCT016 SCT035 08/06 Q1016 NOSIG
  • 200320Z 22011KT 190V250 9999 FEW016 SCT044 08/06 Q1017 NOSIG
  • 200250Z 21011KT 9999 FEW016 BKN049 08/06 Q1017 NOSIG

TAF TAF EBBR
Valido dal 20 a 06 ore il 21 a 12 ore UTC


200512Z 2006/2112 22012KT 9999 SCT020 BKN045
PROB30
TEMPO 2006/2009 4500 -DZ BKN012
BECMG 2009/2011 22015G25KT
TEMPO 2016/2020 23020G35KT 4000 RA SHRA BKN014TCU
BECMG 2018/2020 28015G25KT
BECMG 2020/2022 26012KT
TEMPO 2110/2112 22015G25KT



MetMap, La meteo Aeronautica in un colpo d'occhio ! - Copyright ORBIFLY Dicembre 2007 - Disclaimer

ORBIFLY MET'MAP TEAM :

Programmazione e sviluppo : Alexandra Zaïnal
Concezione : Baudouin d'Aumeries
Aiuto per la programmazione : Marc-Olivier Méhu
Supporto tecnico e logistico : Manuel Goepfert
Aiuto per la traduzione : Arnaldo La Scala

Contatto : metmap@orbifly.com




FONTI E CREDITI :

   NOAA